Time;durP1;ratioP1;P1;durP2;ratioP2;P2;SDS_P1;SDS_P2;PMS_P1;PMS_P2;Temp;Humidity;BMP_temperature;BMP_pressure;BME280_temperature;BME280_humidity;BME280_pressure;Samples;Min_cycle;Max_cycle;Signal;HPM_P1;HPM_P2
2024/03/21 00:00:51;;;;;;;10.03;8.13;;;12.90;99.90;;;;;;5087746;28;20504;-73
2024/03/21 00:03:18;;;;;;;10.07;7.90;;;12.90;99.90;;;;;;5087717;28;20250;-73
2024/03/21 00:05:45;;;;;;;9.90;8.50;;;12.90;99.90;;;;;;5087817;28;20203;-73
2024/03/21 00:08:11;;;;;;;9.27;8.37;;;12.90;99.90;;;;;;5087415;28;20203;-73
2024/03/21 00:10:38;;;;;;;10.37;8.90;;;12.90;99.90;;;;;;5087243;28;20249;-73
2024/03/21 00:13:04;;;;;;;9.27;8.17;;;12.90;99.90;;;;;;5087576;28;20211;-73
2024/03/21 00:15:31;;;;;;;9.40;8.43;;;12.90;99.90;;;;;;5086532;28;20227;-73
2024/03/21 00:17:57;;;;;;;12.03;8.33;;;12.90;99.90;;;;;;5087490;28;20211;-73
2024/03/21 00:20:25;;;;;;;8.77;7.77;;;12.80;99.90;;;;;;5087476;28;20218;-73
2024/03/21 00:22:51;;;;;;;14.13;8.67;;;12.80;99.90;;;;;;5087513;28;20209;-73
2024/03/21 00:25:18;;;;;;;9.33;8.37;;;12.70;99.90;;;;;;5087089;28;20729;-73
2024/03/21 00:27:45;;;;;;;12.10;9.60;;;12.60;99.90;;;;;;5086869;28;20199;-73
2024/03/21 00:30:13;;;;;;;11.73;9.13;;;12.50;99.90;;;;;;5087400;28;20237;-72
2024/03/21 00:32:40;;;;;;;11.40;8.50;;;12.40;99.90;;;;;;5086650;28;20214;-72
2024/03/21 00:35:07;;;;;;;11.63;8.80;;;12.30;99.90;;;;;;5086708;28;20678;-72
2024/03/21 00:37:34;;;;;;;9.93;8.63;;;12.30;99.90;;;;;;5086750;28;20203;-72
2024/03/21 00:40:02;;;;;;;9.30;8.17;;;12.30;99.90;;;;;;5087123;28;20210;-72
2024/03/21 00:42:28;;;;;;;10.47;8.50;;;12.30;99.90;;;;;;5086626;28;20195;-72
2024/03/21 00:44:55;;;;;;;9.20;8.17;;;12.30;99.90;;;;;;5086981;28;20681;-72
2024/03/21 00:47:22;;;;;;;10.77;8.30;;;12.40;99.90;;;;;;5086518;28;20627;-72
2024/03/21 00:49:49;;;;;;;8.40;7.60;;;12.50;99.90;;;;;;5086961;28;20250;-72
2024/03/21 00:52:14;;;;;;;8.77;7.87;;;12.50;99.90;;;;;;5087006;28;20306;-72
2024/03/21 00:54:43;;;;;;;12.47;8.80;;;12.60;99.90;;;;;;5086930;28;20315;-72
2024/03/21 00:57:08;;;;;;;9.83;8.67;;;12.60;99.90;;;;;;5086377;28;20194;-72
2024/03/21 00:59:36;;;;;;;11.57;8.87;;;12.60;99.90;;;;;;5085588;28;20741;-72
2024/03/21 01:02:02;;;;;;;10.23;9.13;;;12.50;99.90;;;;;;5070911;28;20211;-72
2024/03/21 01:04:29;;;;;;;13.33;9.17;;;12.60;99.90;;;;;;5086655;28;20202;-71
2024/03/21 01:06:55;;;;;;;11.57;8.60;;;12.50;99.90;;;;;;5087136;28;20199;-71
2024/03/21 01:09:22;;;;;;;11.60;9.00;;;12.50;99.90;;;;;;5086798;28;20284;-71
2024/03/21 01:11:49;;;;;;;11.30;8.10;;;12.50;99.90;;;;;;5086580;28;20198;-71
2024/03/21 01:14:16;;;;;;;9.83;8.83;;;12.50;99.90;;;;;;5086340;28;20787;-71
2024/03/21 01:16:42;;;;;;;11.43;8.70;;;12.50;99.90;;;;;;5087195;28;20297;-71
2024/03/21 01:19:09;;;;;;;10.37;9.23;;;12.60;99.90;;;;;;5086968;28;20301;-71
2024/03/21 01:21:34;;;;;;;10.10;9.13;;;12.60;99.90;;;;;;5086766;28;20310;-71
2024/03/21 01:24:01;;;;;;;12.57;8.97;;;12.60;99.90;;;;;;5086749;28;20667;-71
2024/03/21 01:26:27;;;;;;;9.63;8.63;;;12.60;99.90;;;;;;5086255;28;20253;-71
2024/03/21 01:28:55;;;;;;;10.10;9.10;;;12.60;99.90;;;;;;5089252;28;20239;-71
2024/03/21 01:31:21;;;;;;;9.80;8.80;;;12.60;99.90;;;;;;5089968;28;20207;-72
2024/03/21 01:33:49;;;;;;;14.23;9.23;;;12.60;99.90;;;;;;5074972;28;20659;-71
2024/03/21 01:36:16;;;;;;;8.20;7.40;;;12.60;99.90;;;;;;5090549;28;20202;-71
2024/03/21 01:38:44;;;;;;;10.47;8.43;;;12.60;99.90;;;;;;5090757;28;20229;-71
2024/03/21 01:41:10;;;;;;;10.13;9.13;;;12.60;99.90;;;;;;5090486;28;20217;-71
2024/03/21 01:43:39;;;;;;;10.73;9.30;;;12.60;99.90;;;;;;5090012;28;20207;-71
2024/03/21 01:46:17;;;;;;;9.43;8.23;;;12.60;99.90;;;;;;5090105;28;20732;-72
2024/03/21 01:48:45;;;;;;;9.47;8.57;;;12.50;99.90;;;;;;5090354;28;20213;-71
2024/03/21 01:51:13;;;;;;;8.97;8.07;;;12.50;99.90;;;;;;5090093;28;20214;-71
2024/03/21 01:53:41;;;;;;;11.93;9.00;;;12.50;99.90;;;;;;5090092;28;20661;-71
2024/03/21 01:56:07;;;;;;;14.17;9.33;;;12.50;99.90;;;;;;5089887;28;20293;-73
2024/03/21 01:58:34;;;;;;;9.33;8.33;;;12.40;99.90;;;;;;5089588;28;20838;-73
2024/03/21 02:01:19;;;;;;;12.00;8.83;;;12.40;99.90;;;;;;5090308;28;20218;-73
2024/03/21 02:03:46;;;;;;;10.47;9.37;;;12.40;99.90;;;;;;5090161;28;20228;-73
2024/03/21 02:06:13;;;;;;;13.73;9.70;;;12.40;99.90;;;;;;5089846;28;20234;-73
2024/03/21 02:08:39;;;;;;;11.10;9.17;;;12.40;99.90;;;;;;5089476;28;20599;-72
2024/03/21 02:11:05;;;;;;;11.17;9.30;;;12.40;99.90;;;;;;5089354;28;20345;-72
2024/03/21 02:13:32;;;;;;;10.80;9.60;;;12.40;99.90;;;;;;5089475;28;20326;-73
2024/03/21 02:15:58;;;;;;;14.73;9.30;;;12.40;99.90;;;;;;5089389;28;20668;-73
2024/03/21 02:18:26;;;;;;;13.13;10.03;;;12.40;99.90;;;;;;5089236;28;20213;-73
2024/03/21 02:20:52;;;;;;;11.63;9.47;;;12.40;99.90;;;;;;5090080;28;20210;-74
2024/03/21 02:23:19;;;;;;;9.60;8.43;;;12.40;99.90;;;;;;5089733;28;20636;-74
2024/03/21 02:25:47;;;;;;;10.37;9.17;;;12.30;99.90;;;;;;5089967;28;20665;-74
2024/03/21 02:28:13;;;;;;;9.93;8.93;;;12.30;99.90;;;;;;5089333;28;20203;-74
2024/03/21 02:30:40;;;;;;;10.40;8.47;;;12.30;99.90;;;;;;5089951;28;20231;-74
2024/03/21 02:33:06;;;;;;;11.00;8.83;;;12.20;99.90;;;;;;5090117;28;20250;-74
2024/03/21 02:35:33;;;;;;;10.80;9.07;;;12.20;99.90;;;;;;5090163;28;20249;-74
2024/03/21 02:37:59;;;;;;;14.80;9.83;;;12.20;99.90;;;;;;5089664;28;20297;-74
2024/03/21 02:40:27;;;;;;;11.80;9.87;;;12.10;99.90;;;;;;5089344;28;20657;-74
2024/03/21 02:42:53;;;;;;;11.43;9.90;;;11.90;99.90;;;;;;5089781;28;20290;-74
2024/03/21 02:45:21;;;;;;;10.97;9.50;;;11.90;99.90;;;;;;5089929;28;20291;-74
2024/03/21 02:47:46;;;;;;;10.33;9.33;;;11.80;99.90;;;;;;5089860;28;20207;-75
2024/03/21 02:50:13;;;;;;;10.93;9.87;;;11.70;99.90;;;;;;5089361;28;20237;-75
2024/03/21 02:52:39;;;;;;;10.77;9.67;;;11.80;99.90;;;;;;5090063;28;20238;-75
2024/03/21 02:55:06;;;;;;;13.10;10.60;;;11.80;99.90;;;;;;5089534;28;21158;-74
2024/03/21 02:57:34;;;;;;;13.27;10.00;;;11.80;99.90;;;;;;5089199;28;20246;-75
2024/03/21 03:00:01;;;;;;;10.97;9.67;;;11.90;99.90;;;;;;5088789;28;20203;-75
2024/03/21 03:02:27;;;;;;;12.53;10.03;;;11.90;99.90;;;;;;5089033;28;20665;-75
2024/03/21 03:04:54;;;;;;;13.23;10.43;;;11.90;99.90;;;;;;5089206;28;20203;-73
2024/03/21 03:07:20;;;;;;;11.30;10.23;;;11.90;99.90;;;;;;5088965;28;20237;-73
2024/03/21 03:09:47;;;;;;;11.70;10.43;;;12.00;99.90;;;;;;5086943;28;20223;-73
2024/03/21 03:12:13;;;;;;;12.40;10.93;;;11.90;99.90;;;;;;5087540;28;20289;-72
2024/03/21 03:14:41;;;;;;;11.97;9.83;;;12.00;99.90;;;;;;5087752;28;20317;-74
2024/03/21 03:17:07;;;;;;;13.47;10.87;;;12.00;99.90;;;;;;5088418;28;21016;-74
2024/03/21 03:19:34;;;;;;;12.63;10.33;;;11.90;99.90;;;;;;5088685;28;20207;-74
2024/03/21 03:22:00;;;;;;;13.10;11.23;;;12.00;99.90;;;;;;5088695;28;20290;-73
2024/03/21 03:24:26;;;;;;;12.17;10.87;;;11.90;99.90;;;;;;5088260;28;20289;-73
2024/03/21 03:26:52;;;;;;;12.60;11.33;;;11.90;99.90;;;;;;5088295;28;20658;-74
2024/03/21 03:29:19;;;;;;;17.70;10.90;;;11.90;99.90;;;;;;5087788;28;20198;-73
2024/03/21 03:31:46;;;;;;;15.63;11.07;;;11.80;99.90;;;;;;5088341;28;20210;-74
2024/03/21 03:36:57;;;;;;;12.23;10.93;;;11.80;99.90;;;;;;5084115;28;20198;-74
2024/03/21 03:39:24;;;;;;;14.73;10.40;;;11.80;99.90;;;;;;5084275;28;20206;-74
2024/03/21 03:41:51;;;;;;;14.67;11.53;;;11.80;99.90;;;;;;5080940;28;20206;-74
2024/03/21 03:44:20;;;;;;;12.97;11.57;;;11.80;99.90;;;;;;5082374;28;20206;-74
2024/03/21 03:46:48;;;;;;;15.23;11.93;;;11.80;99.90;;;;;;5083398;28;20210;-74
2024/03/21 03:49:14;;;;;;;15.40;11.40;;;11.80;99.90;;;;;;5081042;28;20206;-74
2024/03/21 03:51:41;;;;;;;14.03;11.87;;;11.80;99.90;;;;;;5083005;28;20206;-73
2024/03/21 03:54:07;;;;;;;14.63;11.93;;;11.80;99.90;;;;;;5083388;28;20203;-74
2024/03/21 03:56:34;;;;;;;14.63;12.00;;;11.80;99.90;;;;;;5082965;28;20211;-77
2024/03/21 03:58:59;;;;;;;15.57;11.60;;;11.80;99.90;;;;;;5084407;28;20297;-74
2024/03/21 04:01:26;;;;;;;15.23;12.13;;;11.80;99.90;;;;;;5087107;28;20285;-74
2024/03/21 04:03:54;;;;;;;13.10;11.70;;;11.80;99.90;;;;;;5087319;28;20629;-74
2024/03/21 04:06:21;;;;;;;14.53;11.47;;;11.70;99.90;;;;;;5087679;28;20206;-74
2024/03/21 04:08:47;;;;;;;13.50;12.10;;;11.70;99.90;;;;;;5087588;28;20304;-74
2024/03/21 04:11:16;;;;;;;15.97;12.03;;;11.70;99.90;;;;;;5087624;28;20234;-74
2024/03/21 04:13:42;;;;;;;13.97;11.70;;;11.70;99.90;;;;;;5087315;28;20245;-74
2024/03/21 04:16:14;;;;;;;16.07;12.07;;;11.70;99.90;;;;;;5086939;28;20676;-74
2024/03/21 04:18:39;;;;;;;13.67;11.90;;;11.70;99.90;;;;;;5087421;28;20202;-74
2024/03/21 04:21:08;;;;;;;15.40;12.27;;;11.70;99.90;;;;;;5086919;28;20271;-74
2024/03/21 04:23:34;;;;;;;20.17;12.73;;;11.70;99.90;;;;;;5086282;28;20206;-74
2024/03/21 04:26:01;;;;;;;15.73;12.63;;;11.70;99.90;;;;;;5086659;28;20284;-74
2024/03/21 04:28:27;;;;;;;15.67;11.93;;;11.70;99.90;;;;;;5086425;28;20230;-74
2024/03/21 04:30:54;;;;;;;16.40;12.93;;;11.70;99.90;;;;;;5086428;28;20865;-74
2024/03/21 04:33:20;;;;;;;14.33;12.37;;;11.70;99.90;;;;;;5085882;28;20610;-74
2024/03/21 04:35:47;;;;;;;17.23;12.00;;;11.70;99.90;;;;;;5086013;28;20205;-74
2024/03/21 04:38:15;;;;;;;13.70;12.10;;;11.70;99.90;;;;;;5086266;28;20220;-74
2024/03/21 04:40:42;;;;;;;15.43;12.27;;;11.70;99.90;;;;;;5086221;28;20202;-74
2024/03/21 04:43:09;;;;;;;16.63;12.23;;;11.70;99.90;;;;;;5086176;28;20211;-74
2024/03/21 04:45:37;;;;;;;15.60;13.20;;;11.70;99.90;;;;;;5086206;28;20214;-74
2024/03/21 04:48:05;;;;;;;16.53;13.00;;;11.70;99.90;;;;;;5086378;28;20210;-74
2024/03/21 04:50:33;;;;;;;18.47;13.40;;;11.70;99.90;;;;;;5085686;28;20240;-74
2024/03/21 04:52:59;;;;;;;18.77;13.60;;;11.70;99.90;;;;;;5085831;28;20215;-74
2024/03/21 04:55:27;;;;;;;22.40;13.47;;;11.60;99.90;;;;;;5085858;28;20293;-74
2024/03/21 04:57:53;;;;;;;19.40;13.70;;;11.60;99.90;;;;;;5086174;28;20212;-74
2024/03/21 05:00:22;;;;;;;16.17;13.23;;;11.60;99.90;;;;;;5086030;28;20288;-74
2024/03/21 05:02:48;;;;;;;14.60;12.43;;;11.60;99.90;;;;;;5084907;28;20771;-74
2024/03/21 05:05:15;;;;;;;16.50;12.70;;;11.60;99.90;;;;;;5086205;28;20203;-74
2024/03/21 05:07:41;;;;;;;19.03;13.37;;;11.60;99.90;;;;;;5086045;28;20198;-74
2024/03/21 05:10:10;;;;;;;16.03;13.00;;;11.60;99.90;;;;;;5085617;28;20226;-74
2024/03/21 05:12:37;;;;;;;18.17;13.80;;;11.60;99.90;;;;;;5085741;28;20616;-74
2024/03/21 05:15:05;;;;;;;15.03;12.90;;;11.60;99.90;;;;;;5048288;28;1086280;-74
2024/03/21 05:17:31;;;;;;;14.50;12.90;;;11.60;99.90;;;;;;5087032;28;20606;-74
2024/03/21 05:19:58;;;;;;;15.23;12.60;;;11.60;99.90;;;;;;5086268;28;20380;-74
2024/03/21 05:22:24;;;;;;;16.43;13.13;;;11.60;99.90;;;;;;5086783;28;20206;-74
2024/03/21 05:24:51;;;;;;;16.00;13.33;;;11.60;99.90;;;;;;5086139;28;20207;-74
2024/03/21 05:27:19;;;;;;;16.20;13.40;;;11.60;99.90;;;;;;5081982;28;20302;-74
2024/03/21 05:29:48;;;;;;;16.10;13.17;;;11.60;99.90;;;;;;5066177;28;20307;-74
2024/03/21 05:32:14;;;;;;;15.10;13.23;;;11.60;99.90;;;;;;5072327;28;20677;-74
2024/03/21 05:34:41;;;;;;;17.40;13.40;;;11.50;99.90;;;;;;5086335;28;20298;-74
2024/03/21 05:37:06;;;;;;;14.87;13.00;;;11.40;99.90;;;;;;5086494;28;20736;-74
2024/03/21 05:39:33;;;;;;;18.03;14.07;;;11.40;99.90;;;;;;5086113;28;20210;-74
2024/03/21 05:41:59;;;;;;;17.27;13.47;;;11.40;99.90;;;;;;5086843;28;20246;-74
2024/03/21 05:44:26;;;;;;;15.53;13.50;;;11.40;99.90;;;;;;5086026;28;20291;-74
2024/03/21 05:46:53;;;;;;;15.77;12.80;;;11.40;99.90;;;;;;5086722;28;20286;-74
2024/03/21 05:49:20;;;;;;;18.37;13.90;;;11.40;99.90;;;;;;5086423;28;20225;-74
2024/03/21 05:51:48;;;;;;;16.60;13.20;;;11.50;99.90;;;;;;5086639;28;20343;-74
2024/03/21 05:54:15;;;;;;;16.97;13.40;;;11.50;99.90;;;;;;5086204;28;20203;-74
2024/03/21 05:56:41;;;;;;;16.67;13.03;;;11.50;99.90;;;;;;5086326;28;20298;-74
2024/03/21 05:59:08;;;;;;;13.93;12.37;;;11.50;99.90;;;;;;5082292;28;20210;-74
2024/03/21 06:01:34;;;;;;;17.17;13.30;;;11.50;99.90;;;;;;5086277;28;20211;-74
2024/03/21 06:04:04;;;;;;;20.00;14.40;;;11.60;99.90;;;;;;5085804;28;20207;-74
2024/03/21 06:06:30;;;;;;;16.93;14.07;;;11.60;99.90;;;;;;5086314;28;20195;-74
2024/03/21 06:08:57;;;;;;;14.70;13.00;;;11.50;99.90;;;;;;5086258;28;20207;-74
2024/03/21 06:11:23;;;;;;;16.03;13.57;;;11.60;99.90;;;;;;5085697;28;20234;-74
2024/03/21 06:13:50;;;;;;;14.80;12.63;;;11.60;99.90;;;;;;5087366;28;20241;-74
2024/03/21 06:16:16;;;;;;;16.67;13.17;;;11.60;99.90;;;;;;5089753;28;20239;-74
2024/03/21 06:18:43;;;;;;;17.70;13.33;;;11.60;99.90;;;;;;5089965;28;20792;-74
2024/03/21 06:21:10;;;;;;;19.13;13.53;;;11.60;99.90;;;;;;5089714;28;20677;-74
2024/03/21 06:23:37;;;;;;;16.27;12.57;;;11.60;99.90;;;;;;5089729;28;20256;-74
2024/03/21 06:26:03;;;;;;;16.13;13.37;;;11.60;99.90;;;;;;5089670;28;20631;-74
2024/03/21 06:28:30;;;;;;;19.27;14.30;;;11.60;99.90;;;;;;5089534;28;20215;-73
2024/03/21 06:30:56;;;;;;;16.90;13.40;;;11.30;99.90;;;;;;5089605;28;20253;-74
2024/03/21 06:33:23;;;;;;;14.53;12.80;;;11.30;99.90;;;;;;5073478;28;20356;-74
2024/03/21 06:35:49;;;;;;;18.73;13.43;;;11.20;99.90;;;;;;5069174;28;20572;-74
2024/03/21 06:38:17;;;;;;;17.33;13.57;;;11.00;99.90;;;;;;5069239;28;20211;-74
2024/03/21 06:40:43;;;;;;;19.07;14.20;;;11.10;99.90;;;;;;5085520;28;20210;-74
2024/03/21 06:43:10;;;;;;;18.47;13.73;;;11.10;99.90;;;;;;5089562;28;20214;-74
2024/03/21 06:45:37;;;;;;;18.13;13.70;;;10.90;99.90;;;;;;5089404;28;20289;-75
2024/03/21 06:48:04;;;;;;;17.13;13.10;;;10.90;99.90;;;;;;5089016;28;20329;-74
2024/03/21 06:50:31;;;;;;;15.53;13.07;;;10.90;99.90;;;;;;5088782;28;20226;-74
2024/03/21 06:52:58;;;;;;;17.40;12.97;;;11.00;99.90;;;;;;5089205;28;20297;-73
2024/03/21 06:55:26;;;;;;;15.43;12.90;;;11.10;99.90;;;;;;5088974;28;20211;-74
2024/03/21 06:57:57;;;;;;;15.53;13.07;;;11.20;99.90;;;;;;5088957;28;20203;-74
2024/03/21 07:00:23;;;;;;;17.17;13.83;;;11.30;99.90;;;;;;5088867;28;20207;-74
2024/03/21 07:02:51;;;;;;;18.63;13.77;;;11.40;99.90;;;;;;5088622;28;20211;-74
2024/03/21 07:05:17;;;;;;;20.17;13.37;;;11.40;99.90;;;;;;5088760;28;20210;-74
2024/03/21 07:07:43;;;;;;;19.63;14.03;;;11.50;99.90;;;;;;5089066;28;20290;-74
2024/03/21 07:10:10;;;;;;;19.17;13.83;;;11.50;99.90;;;;;;5088387;28;20945;-74
2024/03/21 07:12:38;;;;;;;19.03;14.20;;;11.50;99.90;;;;;;5088804;28;20203;-74
2024/03/21 07:15:06;;;;;;;18.57;13.20;;;11.50;99.90;;;;;;5088193;28;20230;-73
2024/03/21 07:17:32;;;;;;;16.83;13.90;;;11.50;99.90;;;;;;5088069;28;20755;-73
2024/03/21 07:19:59;;;;;;;17.27;14.40;;;11.60;99.90;;;;;;5088716;28;20206;-73
2024/03/21 07:22:25;;;;;;;19.00;13.97;;;11.60;99.90;;;;;;5088453;28;20683;-73
2024/03/21 07:24:52;;;;;;;18.33;13.83;;;11.60;99.90;;;;;;5087048;28;20325;-73
2024/03/21 07:27:18;;;;;;;20.27;14.83;;;11.60;99.90;;;;;;5088154;28;20293;-74
2024/03/21 07:29:47;;;;;;;18.40;13.17;;;11.60;99.90;;;;;;5088055;28;20301;-74
2024/03/21 07:32:13;;;;;;;19.83;14.97;;;11.60;99.90;;;;;;5081734;28;20248;-73
2024/03/21 07:34:40;;;;;;;19.60;14.73;;;11.50;99.90;;;;;;5068096;28;20214;-73
2024/03/21 07:37:06;;;;;;;18.10;14.43;;;11.50;99.90;;;;;;5085946;28;20203;-74
2024/03/21 07:39:34;;;;;;;20.00;14.93;;;11.30;99.90;;;;;;5087951;28;20203;-73
2024/03/21 07:42:00;;;;;;;20.43;15.57;;;11.20;99.90;;;;;;5088335;28;20326;-73
2024/03/21 07:44:28;;;;;;;21.80;15.67;;;11.20;99.90;;;;;;5087959;28;20557;-74
2024/03/21 07:46:55;;;;;;;21.10;15.53;;;11.10;99.90;;;;;;5088063;28;20205;-73
2024/03/21 07:49:22;;;;;;;22.47;16.20;;;11.20;99.90;;;;;;5088138;28;20225;-73
2024/03/21 07:51:48;;;;;;;22.13;17.40;;;11.10;99.90;;;;;;5087894;28;20708;-73
2024/03/21 07:54:15;;;;;;;22.53;17.43;;;11.10;99.90;;;;;;5087559;28;20209;-73
2024/03/21 07:56:41;;;;;;;24.30;17.40;;;11.00;99.90;;;;;;5087439;28;20319;-73
2024/03/21 07:59:08;;;;;;;23.53;17.17;;;11.00;99.90;;;;;;5088044;28;20209;-73
2024/03/21 08:01:34;;;;;;;22.27;18.17;;;10.90;99.90;;;;;;5087825;28;20207;-73
2024/03/21 08:04:04;;;;;;;23.27;17.37;;;10.90;99.90;;;;;;5087617;28;20629;-73
2024/03/21 08:06:30;;;;;;;22.87;17.47;;;10.90;99.90;;;;;;5087695;28;20731;-73
2024/03/21 08:08:57;;;;;;;25.23;19.30;;;10.80;99.90;;;;;;5074708;28;20219;-73
2024/03/21 08:11:23;;;;;;;24.37;18.60;;;10.90;99.90;;;;;;5067060;28;20245;-73
2024/03/21 08:13:50;;;;;;;26.57;17.80;;;10.90;99.90;;;;;;5067275;28;20322;-73
2024/03/21 08:16:16;;;;;;;22.33;17.07;;;10.80;99.90;;;;;;5073781;28;20244;-73
2024/03/21 08:18:42;;;;;;;24.33;18.27;;;10.90;99.90;;;;;;5087689;28;20504;-73
2024/03/21 08:21:10;;;;;;;24.03;18.53;;;10.80;99.90;;;;;;5087828;28;20221;-74
2024/03/21 08:23:37;;;;;;;21.97;18.20;;;10.80;99.90;;;;;;5087245;28;20199;-73
2024/03/21 08:26:03;;;;;;;24.40;18.13;;;10.80;99.90;;;;;;5087105;28;20942;-73
2024/03/21 08:28:30;;;;;;;24.90;18.40;;;10.80;99.90;;;;;;5087320;28;20221;-73
2024/03/21 08:30:57;;;;;;;23.67;18.20;;;10.80;99.90;;;;;;5087458;28;20957;-73
2024/03/21 08:33:24;;;;;;;23.27;18.27;;;10.90;99.90;;;;;;5087165;28;20230;-73
2024/03/21 08:35:50;;;;;;;22.43;18.27;;;10.80;99.90;;;;;;5087570;28;20698;-73
2024/03/21 08:38:19;;;;;;;25.50;19.77;;;10.80;99.90;;;;;;5087272;28;20741;-73
2024/03/21 08:40:51;;;;;;;25.47;19.70;;;10.90;99.90;;;;;;5086992;28;21091;-73
2024/03/21 08:43:18;;;;;;;28.33;21.77;;;11.00;99.90;;;;;;5086859;28;20951;-73
2024/03/21 08:45:45;;;;;;;27.27;22.00;;;11.10;99.90;;;;;;5087014;28;20297;-73
2024/03/21 08:48:13;;;;;;;27.67;21.90;;;11.00;99.90;;;;;;5086836;28;20210;-74
2024/03/21 08:50:39;;;;;;;26.80;21.53;;;11.00;99.90;;;;;;5086985;28;20227;-73
2024/03/21 08:53:06;;;;;;;24.43;19.50;;;11.10;99.90;;;;;;5087152;28;20211;-73
2024/03/21 08:55:34;;;;;;;28.10;20.43;;;11.20;99.90;;;;;;5086501;28;20210;-74
2024/03/21 08:58:01;;;;;;;24.30;19.13;;;11.20;99.90;;;;;;5087203;28;20265;-74
2024/03/21 09:00:27;;;;;;;25.60;19.17;;;11.20;99.90;;;;;;5087139;28;20240;-74
2024/03/21 09:02:53;;;;;;;26.70;20.00;;;11.30;99.90;;;;;;5087327;28;20702;-74
2024/03/21 09:05:19;;;;;;;29.77;19.60;;;11.30;99.90;;;;;;5086909;28;20697;-74
2024/03/21 09:07:47;;;;;;;31.57;21.23;;;11.30;99.90;;;;;;5087285;28;20286;-74
2024/03/21 09:10:13;;;;;;;27.00;20.63;;;11.30;99.90;;;;;;5086534;28;20732;-74
2024/03/21 09:12:42;;;;;;;26.47;20.03;;;11.30;99.90;;;;;;5086559;28;20325;-74
2024/03/21 09:15:09;;;;;;;27.67;20.57;;;11.30;99.90;;;;;;5086684;28;20635;-73
2024/03/21 09:17:36;;;;;;;26.83;20.83;;;11.30;99.90;;;;;;5086926;28;20289;-74
2024/03/21 09:20:04;;;;;;;27.80;20.37;;;11.30;99.90;;;;;;5086996;28;20256;-73
2024/03/21 09:22:31;;;;;;;28.97;21.43;;;11.30;99.90;;;;;;5086738;28;20238;-73
2024/03/21 09:24:57;;;;;;;31.27;21.47;;;11.30;99.90;;;;;;5085980;28;20210;-74
2024/03/21 09:27:24;;;;;;;29.37;20.63;;;11.40;99.90;;;;;;5086655;28;20218;-74
2024/03/21 09:29:51;;;;;;;30.33;21.20;;;11.40;99.90;;;;;;5086476;28;20213;-74
2024/03/21 09:32:19;;;;;;;29.90;21.90;;;11.40;99.90;;;;;;5086495;28;20363;-74
2024/03/21 09:34:47;;;;;;;29.10;21.27;;;11.40;99.90;;;;;;5086407;28;20260;-74
2024/03/21 09:37:14;;;;;;;27.23;20.67;;;11.40;99.90;;;;;;5086753;28;20211;-74
2024/03/21 09:39:40;;;;;;;23.80;20.00;;;11.50;99.90;;;;;;5085971;28;20202;-74
2024/03/21 09:42:09;;;;;;;28.47;20.33;;;11.50;99.90;;;;;;5086638;28;20214;-74
2024/03/21 09:44:36;;;;;;;23.20;19.30;;;11.60;99.90;;;;;;5086239;28;20558;-74
2024/03/21 09:47:06;;;;;;;24.33;18.97;;;11.60;99.90;;;;;;5086619;28;20209;-74
2024/03/21 09:49:32;;;;;;;20.90;17.50;;;11.70;99.90;;;;;;5089462;28;20218;-74
2024/03/21 09:52:00;;;;;;;22.17;17.43;;;11.80;99.90;;;;;;5090462;28;20234;-74
2024/03/21 09:54:25;;;;;;;23.73;18.40;;;11.90;99.90;;;;;;5090095;28;20253;-74
2024/03/21 09:56:55;;;;;;;20.23;18.03;;;12.10;99.90;;;;;;5089988;28;20214;-74
2024/03/21 09:59:21;;;;;;;20.20;17.37;;;12.20;99.90;;;;;;5090294;28;20211;-74
2024/03/21 10:01:48;;;;;;;18.67;16.67;;;12.40;99.90;;;;;;5089816;28;20687;-72
2024/03/21 10:04:16;;;;;;;20.53;16.50;;;12.50;99.90;;;;;;5090301;28;20248;-73
2024/03/21 10:06:46;;;;;;;18.07;16.13;;;12.50;99.90;;;;;;5090250;28;20206;-73
2024/03/21 10:09:12;;;;;;;17.17;15.17;;;12.50;99.90;;;;;;5079581;28;20733;-73
2024/03/21 10:11:40;;;;;;;18.63;15.47;;;12.70;99.90;;;;;;5069205;28;20705;-73
2024/03/21 10:14:05;;;;;;;15.33;13.73;;;12.80;99.90;;;;;;5069639;28;20612;-74
2024/03/21 10:16:33;;;;;;;15.53;13.60;;;13.00;99.90;;;;;;5079167;28;20213;-74
2024/03/21 10:18:59;;;;;;;14.43;13.00;;;13.20;99.90;;;;;;5089815;28;20244;-74
2024/03/21 10:21:28;;;;;;;13.87;12.40;;;13.40;99.90;;;;;;5089547;28;20575;-74
2024/03/21 10:24:01;;;;;;;13.10;11.80;;;13.60;99.90;;;;;;5088719;28;20206;-73
2024/03/21 10:26:29;;;;;;;11.60;10.40;;;13.70;99.90;;;;;;5089234;28;20199;-73
2024/03/21 10:28:55;;;;;;;10.70;9.70;;;13.90;99.90;;;;;;5089508;28;20207;-73
2024/03/21 10:31:23;;;;;;;8.70;7.93;;;14.00;99.90;;;;;;5089522;28;20280;-74
2024/03/21 10:33:52;;;;;;;7.40;6.80;;;14.10;99.90;;;;;;5089479;28;20568;-73
2024/03/21 10:36:19;;;;;;;6.40;5.80;;;14.20;99.90;;;;;;5089639;28;20230;-74
2024/03/21 10:38:47;;;;;;;5.60;5.20;;;14.40;99.90;;;;;;5089261;28;20199;-74
2024/03/21 10:41:20;;;;;;;3.53;3.27;;;14.50;99.90;;;;;;5089095;28;20213;-73
2024/03/21 10:43:54;;;;;;;3.40;3.17;;;14.60;99.90;;;;;;5089571;28;20244;-73
2024/03/21 10:46:23;;;;;;;4.33;4.03;;;14.70;99.90;;;;;;5089157;28;20710;-74
2024/03/21 10:48:49;;;;;;;4.83;4.43;;;14.90;99.90;;;;;;5089588;28;20210;-74
2024/03/21 10:51:19;;;;;;;4.87;4.47;;;14.90;99.90;;;;;;5089040;28;20253;-74
2024/03/21 10:53:57;;;;;;;5.73;5.23;;;15.00;99.90;;;;;;5089677;28;20230;-74
2024/03/21 10:56:25;;;;;;;5.17;4.77;;;15.10;99.90;;;;;;5088518;28;21100;-74
2024/03/21 10:58:56;;;;;;;6.73;4.97;;;15.20;99.90;;;;;;5089146;28;20233;-74
2024/03/21 11:01:34;;;;;;;5.40;4.90;;;15.20;99.90;;;;;;5089240;28;20570;-74
2024/03/21 11:04:03;;;;;;;5.67;5.23;;;15.40;99.90;;;;;;5068776;28;20294;-74
2024/03/21 11:06:32;;;;;;;6.10;5.60;;;15.50;99.90;;;;;;5087322;28;20395;-74
2024/03/21 11:08:59;;;;;;;5.10;4.70;;;15.80;99.90;;;;;;5089181;28;20291;-74
2024/03/21 11:11:27;;;;;;;5.20;4.63;;;15.90;99.90;;;;;;5088728;28;20245;-74
2024/03/21 11:13:53;;;;;;;4.67;3.93;;;16.00;99.90;;;;;;5088585;28;20259;-74
2024/03/21 11:16:20;;;;;;;3.70;3.50;;;15.80;99.90;;;;;;5088643;28;20195;-73
2024/03/21 11:18:46;;;;;;;3.57;3.27;;;15.90;99.90;;;;;;5088964;28;20207;-74
2024/03/21 11:21:15;;;;;;;3.20;2.93;;;15.70;99.90;;;;;;5088774;28;20250;-74
2024/03/21 11:23:43;;;;;;;3.30;3.10;;;15.70;99.90;;;;;;5088634;28;20247;-74
2024/03/21 11:26:14;;;;;;;3.77;3.57;;;15.80;99.90;;;;;;5088441;28;20199;-74
2024/03/21 11:28:40;;;;;;;3.67;3.43;;;15.60;99.90;;;;;;5088992;28;20197;-73
2024/03/21 11:31:21;;;;;;;4.23;3.83;;;15.30;99.90;;;;;;5088915;28;20207;-74
2024/03/21 11:33:48;;;;;;;4.13;3.83;;;15.10;99.90;;;;;;5088497;28;20297;-73
2024/03/21 11:36:18;;;;;;;3.87;3.57;;;15.00;99.90;;;;;;5088269;28;20206;-73
2024/03/21 11:38:44;;;;;;;4.33;4.03;;;14.80;99.90;;;;;;5088549;28;20227;-73
2024/03/21 11:41:19;;;;;;;4.00;3.70;;;14.80;99.90;;;;;;5088534;28;20217;-74
2024/03/21 11:43:49;;;;;;;4.10;3.70;;;14.80;99.90;;;;;;5088733;28;20198;-74
2024/03/21 11:46:19;;;;;;;3.67;3.37;;;14.90;99.90;;;;;;5088057;28;20210;-74
2024/03/21 11:48:45;;;;;;;3.77;3.47;;;14.80;99.90;;;;;;5088478;28;20607;-74
2024/03/21 11:51:16;;;;;;;3.60;3.40;;;14.70;99.90;;;;;;5088066;28;20644;-74
2024/03/21 11:53:42;;;;;;;4.27;3.60;;;14.80;99.90;;;;;;5085243;28;20214;-74
2024/03/21 11:56:08;;;;;;;3.33;3.03;;;14.80;99.90;;;;;;5087967;28;20809;-74
2024/03/21 11:58:37;;;;;;;2.97;2.77;;;14.80;99.90;;;;;;5088023;28;20236;-74
2024/03/21 12:01:04;;;;;;;3.17;2.97;;;14.80;99.90;;;;;;5087740;28;20268;-74
2024/03/21 12:03:30;;;;;;;2.93;2.70;;;14.80;99.90;;;;;;5087964;28;20207;-74
2024/03/21 12:05:57;;;;;;;2.80;2.60;;;14.70;99.90;;;;;;5088000;28;20230;-74
2024/03/21 12:08:23;;;;;;;3.10;2.90;;;14.90;99.90;;;;;;5083326;28;20285;-74
2024/03/21 12:10:51;;;;;;;3.00;2.80;;;15.10;99.90;;;;;;5066999;28;20204;-74
2024/03/21 12:13:17;;;;;;;3.27;2.97;;;15.30;99.90;;;;;;5067092;28;20232;-74
2024/03/21 12:15:45;;;;;;;3.53;3.23;;;15.30;99.90;;;;;;5067325;28;20196;-75
2024/03/21 12:18:11;;;;;;;5.87;3.77;;;15.30;99.90;;;;;;5083238;28;20297;-74
2024/03/21 12:20:38;;;;;;;3.53;3.10;;;15.20;99.90;;;;;;5087764;28;20217;-74
2024/03/21 12:23:04;;;;;;;3.43;3.13;;;15.10;99.90;;;;;;5087464;28;20305;-74
2024/03/21 12:25:31;;;;;;;3.30;3.10;;;15.00;99.90;;;;;;5086852;28;20302;-74
2024/03/21 12:27:57;;;;;;;4.17;3.77;;;14.90;99.90;;;;;;5087365;28;20690;-75
2024/03/21 12:30:24;;;;;;;4.20;3.90;;;14.70;99.90;;;;;;5087454;28;20285;-74
2024/03/21 12:32:51;;;;;;;4.97;3.30;;;14.60;99.90;;;;;;5087555;28;20598;-74
2024/03/21 12:35:18;;;;;;;3.77;3.57;;;14.60;99.90;;;;;;5086977;28;20587;-74